sensor_id;sensor_type;location;lat;lon;timestamp;pressure;altitude;pressure_sealevel;temperature;humidity
45071;BME280;30836;48.906;9.140;2023-05-23T00:00:29;984.40;;;24.69;49.97
45071;BME280;30836;48.906;9.140;2023-05-23T00:01:29;984.40;;;24.80;49.91
45071;BME280;30836;48.906;9.140;2023-05-23T00:02:30;984.40;;;24.83;50.04
45071;BME280;30836;48.906;9.140;2023-05-23T00:03:30;984.42;;;24.80;50.16
45071;BME280;30836;48.906;9.140;2023-05-23T00:04:31;984.40;;;24.79;50.08
45071;BME280;30836;48.906;9.140;2023-05-23T00:05:31;984.44;;;24.81;50.05
45071;BME280;30836;48.906;9.140;2023-05-23T00:06:32;984.44;;;24.78;50.47
45071;BME280;30836;48.906;9.140;2023-05-23T00:07:32;984.42;;;24.75;50.26
45071;BME280;30836;48.906;9.140;2023-05-23T00:08:33;984.38;;;24.74;50.36
45071;BME280;30836;48.906;9.140;2023-05-23T00:09:33;984.38;;;24.64;50.89
45071;BME280;30836;48.906;9.140;2023-05-23T00:10:34;984.42;;;24.57;50.80
45071;BME280;30836;48.906;9.140;2023-05-23T00:11:34;984.40;;;24.52;51.17
45071;BME280;30836;48.906;9.140;2023-05-23T00:12:34;984.40;;;24.46;51.23
45071;BME280;30836;48.906;9.140;2023-05-23T00:13:35;984.38;;;24.44;51.26
45071;BME280;30836;48.906;9.140;2023-05-23T00:14:35;984.40;;;24.45;51.14
45071;BME280;30836;48.906;9.140;2023-05-23T00:15:36;984.42;;;24.48;51.17
45071;BME280;30836;48.906;9.140;2023-05-23T00:16:36;984.40;;;24.49;51.12
45071;BME280;30836;48.906;9.140;2023-05-23T00:17:36;984.40;;;24.47;51.31
45071;BME280;30836;48.906;9.140;2023-05-23T00:18:37;984.40;;;24.42;51.59
45071;BME280;30836;48.906;9.140;2023-05-23T00:19:38;984.40;;;24.35;51.76
45071;BME280;30836;48.906;9.140;2023-05-23T00:20:41;984.40;;;24.32;51.68
45071;BME280;30836;48.906;9.140;2023-05-23T00:21:42;984.42;;;24.31;51.74
45071;BME280;30836;48.906;9.140;2023-05-23T00:22:43;984.42;;;24.30;51.78
45071;BME280;30836;48.906;9.140;2023-05-23T00:23:43;984.44;;;24.29;51.65
45071;BME280;30836;48.906;9.140;2023-05-23T00:24:44;984.38;;;24.30;51.67
45071;BME280;30836;48.906;9.140;2023-05-23T00:25:44;984.38;;;24.19;52.62
45071;BME280;30836;48.906;9.140;2023-05-23T00:26:45;984.38;;;23.97;53.13
45071;BME280;30836;48.906;9.140;2023-05-23T00:27:46;984.36;;;23.81;53.17
45071;BME280;30836;48.906;9.140;2023-05-23T00:28:46;984.34;;;23.74;53.29
45071;BME280;30836;48.906;9.140;2023-05-23T00:29:46;984.36;;;23.69;53.38
45071;BME280;30836;48.906;9.140;2023-05-23T00:30:47;984.38;;;23.67;53.43
45071;BME280;30836;48.906;9.140;2023-05-23T00:31:48;984.40;;;23.64;53.59
45071;BME280;30836;48.906;9.140;2023-05-23T00:32:48;984.40;;;23.62;53.62
45071;BME280;30836;48.906;9.140;2023-05-23T00:33:48;984.38;;;23.62;53.48
45071;BME280;30836;48.906;9.140;2023-05-23T00:34:49;984.40;;;23.63;53.42
45071;BME280;30836;48.906;9.140;2023-05-23T00:35:49;984.38;;;23.65;53.37
45071;BME280;30836;48.906;9.140;2023-05-23T00:36:50;984.42;;;23.65;53.50
45071;BME280;30836;48.906;9.140;2023-05-23T00:37:50;984.40;;;23.63;53.68
45071;BME280;30836;48.906;9.140;2023-05-23T00:38:51;984.44;;;23.61;53.63
45071;BME280;30836;48.906;9.140;2023-05-23T00:39:51;984.46;;;23.60;53.67
45071;BME280;30836;48.906;9.140;2023-05-23T00:40:52;984.48;;;23.57;53.85
45071;BME280;30836;48.906;9.140;2023-05-23T00:41:53;984.52;;;23.52;54.11
45071;BME280;30836;48.906;9.140;2023-05-23T00:42:53;984.50;;;23.45;54.35
45071;BME280;30836;48.906;9.140;2023-05-23T00:43:53;984.52;;;23.39;54.34
45071;BME280;30836;48.906;9.140;2023-05-23T00:44:54;984.52;;;23.36;54.20
45071;BME280;30836;48.906;9.140;2023-05-23T00:45:54;984.52;;;23.38;54.15
45071;BME280;30836;48.906;9.140;2023-05-23T00:46:55;984.54;;;23.39;54.33
45071;BME280;30836;48.906;9.140;2023-05-23T00:47:56;984.54;;;23.38;54.31
45071;BME280;30836;48.906;9.140;2023-05-23T00:48:57;984.54;;;23.37;54.24
45071;BME280;30836;48.906;9.140;2023-05-23T00:49:58;984.54;;;23.39;54.18
45071;BME280;30836;48.906;9.140;2023-05-23T00:50:58;984.55;;;23.41;54.18
45071;BME280;30836;48.906;9.140;2023-05-23T00:51:59;984.54;;;23.41;54.31
45071;BME280;30836;48.906;9.140;2023-05-23T00:53:00;984.55;;;23.36;54.56
45071;BME280;30836;48.906;9.140;2023-05-23T00:54:01;984.54;;;23.30;54.54
45071;BME280;30836;48.906;9.140;2023-05-23T00:55:04;984.54;;;23.30;54.50
45071;BME280;30836;48.906;9.140;2023-05-23T00:56:05;984.57;;;23.34;54.26
45071;BME280;30836;48.906;9.140;2023-05-23T00:57:05;984.59;;;23.43;53.90
45071;BME280;30836;48.906;9.140;2023-05-23T00:58:06;984.61;;;23.57;53.42
45071;BME280;30836;48.906;9.140;2023-05-23T00:59:06;984.70;;;23.70;53.14
45071;BME280;30836;48.906;9.140;2023-05-23T01:00:07;984.61;;;23.80;53.01
45071;BME280;30836;48.906;9.140;2023-05-23T01:01:08;984.61;;;23.86;52.88
45071;BME280;30836;48.906;9.140;2023-05-23T01:02:09;984.70;;;23.89;52.99
45071;BME280;30836;48.906;9.140;2023-05-23T01:03:09;984.70;;;23.93;52.74
45071;BME280;30836;48.906;9.140;2023-05-23T01:04:10;984.70;;;24.02;52.39
45071;BME280;30836;48.906;9.140;2023-05-23T01:05:11;984.72;;;24.09;52.17
45071;BME280;30836;48.906;9.140;2023-05-23T01:06:14;984.72;;;24.13;52.22
45071;BME280;30836;48.906;9.140;2023-05-23T01:07:15;984.72;;;24.15;52.17
45071;BME280;30836;48.906;9.140;2023-05-23T01:08:15;984.72;;;24.12;52.58
45071;BME280;30836;48.906;9.140;2023-05-23T01:09:16;984.74;;;24.09;52.38
45071;BME280;30836;48.906;9.140;2023-05-23T01:10:18;984.74;;;24.11;52.27
45071;BME280;30836;48.906;9.140;2023-05-23T01:11:25;984.74;;;24.14;52.08
45071;BME280;30836;48.906;9.140;2023-05-23T01:13:58;984.76;;;24.28;51.69
45071;BME280;30836;48.906;9.140;2023-05-23T01:16:04;984.74;;;24.37;51.66
45071;BME280;30836;48.906;9.140;2023-05-23T01:20:37;984.77;;;24.37;51.75
45071;BME280;30836;48.906;9.140;2023-05-23T01:21:40;984.77;;;24.35;51.78
45071;BME280;30836;48.906;9.140;2023-05-23T01:21:54;984.77;;;24.31;51.76
45071;BME280;30836;48.906;9.140;2023-05-23T01:23:50;984.76;;;24.28;52.10
45071;BME280;30836;48.906;9.140;2023-05-23T01:28:46;984.70;;;23.85;53.20
45071;BME280;30836;48.906;9.140;2023-05-23T01:29:53;984.70;;;23.76;53.56
45071;BME280;30836;48.906;9.140;2023-05-23T01:30:57;984.72;;;23.67;53.57
45071;BME280;30836;48.906;9.140;2023-05-23T01:32:02;984.70;;;23.62;53.78
45071;BME280;30836;48.906;9.140;2023-05-23T01:33:05;984.61;;;23.54;54.25
45071;BME280;30836;48.906;9.140;2023-05-23T01:34:07;984.72;;;23.42;54.54
45071;BME280;30836;48.906;9.140;2023-05-23T01:35:09;984.70;;;23.33;54.52
45071;BME280;30836;48.906;9.140;2023-05-23T01:36:12;984.70;;;23.28;54.86
45071;BME280;30836;48.906;9.140;2023-05-23T01:37:13;984.70;;;23.23;55.00
45071;BME280;30836;48.906;9.140;2023-05-23T01:38:13;984.74;;;23.18;55.19
45071;BME280;30836;48.906;9.140;2023-05-23T01:39:13;984.74;;;23.16;55.01
45071;BME280;30836;48.906;9.140;2023-05-23T01:40:14;984.74;;;23.16;55.15
45071;BME280;30836;48.906;9.140;2023-05-23T01:41:14;984.74;;;23.16;55.01
45071;BME280;30836;48.906;9.140;2023-05-23T01:42:15;984.72;;;23.17;55.19
45071;BME280;30836;48.906;9.140;2023-05-23T01:43:16;984.72;;;23.14;55.36
45071;BME280;30836;48.906;9.140;2023-05-23T01:44:16;984.74;;;23.11;55.24
45071;BME280;30836;48.906;9.140;2023-05-23T01:45:18;984.72;;;23.10;55.41
45071;BME280;30836;48.906;9.140;2023-05-23T01:46:20;984.61;;;23.09;55.33
45071;BME280;30836;48.906;9.140;2023-05-23T01:47:22;984.59;;;23.11;55.06
45071;BME280;30836;48.906;9.140;2023-05-23T01:48:23;984.59;;;23.15;55.04
45071;BME280;30836;48.906;9.140;2023-05-23T01:48:35;984.61;;;23.21;54.97
45071;BME280;30836;48.906;9.140;2023-05-23T01:48:46;984.70;;;23.23;54.94
45071;BME280;30836;48.906;9.140;2023-05-23T01:49:47;984.61;;;23.24;54.86
45071;BME280;30836;48.906;9.140;2023-05-23T01:50:48;984.59;;;23.25;54.83
45071;BME280;30836;48.906;9.140;2023-05-23T01:51:06;984.57;;;23.17;54.93
45071;BME280;30836;48.906;9.140;2023-05-23T01:52:07;984.70;;;23.19;54.87
45071;BME280;30836;48.906;9.140;2023-05-23T01:53:07;984.61;;;23.25;54.77
45071;BME280;30836;48.906;9.140;2023-05-23T01:54:09;984.70;;;23.32;54.47
45071;BME280;30836;48.906;9.140;2023-05-23T01:55:10;984.61;;;23.40;54.24
45071;BME280;30836;48.906;9.140;2023-05-23T01:56:12;984.59;;;23.47;54.13
45071;BME280;30836;48.906;9.140;2023-05-23T01:57:13;984.61;;;23.45;54.45
45071;BME280;30836;48.906;9.140;2023-05-23T01:58:14;984.70;;;23.38;54.78
45071;BME280;30836;48.906;9.140;2023-05-23T01:59:15;984.70;;;23.31;54.80
45071;BME280;30836;48.906;9.140;2023-05-23T02:00:16;984.70;;;23.24;55.10
45071;BME280;30836;48.906;9.140;2023-05-23T02:01:17;984.72;;;23.18;55.19
45071;BME280;30836;48.906;9.140;2023-05-23T02:02:17;984.70;;;23.17;54.89
45071;BME280;30836;48.906;9.140;2023-05-23T02:03:18;984.70;;;23.21;54.81
45071;BME280;30836;48.906;9.140;2023-05-23T02:04:19;984.72;;;23.24;54.86
45071;BME280;30836;48.906;9.140;2023-05-23T02:05:21;984.72;;;23.25;54.91
45071;BME280;30836;48.906;9.140;2023-05-23T02:06:21;984.72;;;23.27;54.69
45071;BME280;30836;48.906;9.140;2023-05-23T02:07:21;984.72;;;23.29;54.76
45071;BME280;30836;48.906;9.140;2023-05-23T02:08:22;984.74;;;23.30;54.93
45071;BME280;30836;48.906;9.140;2023-05-23T02:09:22;984.72;;;23.30;54.57
45071;BME280;30836;48.906;9.140;2023-05-23T02:10:23;984.74;;;23.30;54.87
45071;BME280;30836;48.906;9.140;2023-05-23T02:11:23;984.77;;;23.31;54.68
45071;BME280;30836;48.906;9.140;2023-05-23T02:12:24;984.74;;;23.37;54.47
45071;BME280;30836;48.906;9.140;2023-05-23T02:13:24;984.72;;;23.43;54.25
45071;BME280;30836;48.906;9.140;2023-05-23T02:14:24;984.72;;;23.40;54.78
45071;BME280;30836;48.906;9.140;2023-05-23T02:15:25;984.61;;;23.33;54.90
45071;BME280;30836;48.906;9.140;2023-05-23T02:16:25;984.70;;;23.30;54.81
45071;BME280;30836;48.906;9.140;2023-05-23T02:17:26;984.76;;;23.32;54.63
45071;BME280;30836;48.906;9.140;2023-05-23T02:18:26;984.74;;;23.35;54.53
45071;BME280;30836;48.906;9.140;2023-05-23T02:19:27;984.76;;;23.38;54.46
45071;BME280;30836;48.906;9.140;2023-05-23T02:20:27;984.76;;;23.40;54.46
45071;BME280;30836;48.906;9.140;2023-05-23T02:21:28;984.77;;;23.39;54.82
45071;BME280;30836;48.906;9.140;2023-05-23T02:22:28;984.77;;;23.35;54.74
45071;BME280;30836;48.906;9.140;2023-05-23T02:23:28;984.77;;;23.36;54.54
45071;BME280;30836;48.906;9.140;2023-05-23T02:24:29;984.76;;;23.40;54.36
45071;BME280;30836;48.906;9.140;2023-05-23T02:25:29;984.76;;;23.44;54.40
45071;BME280;30836;48.906;9.140;2023-05-23T02:26:30;984.79;;;23.41;54.81
45071;BME280;30836;48.906;9.140;2023-05-23T02:27:30;984.76;;;23.34;54.85
45071;BME280;30836;48.906;9.140;2023-05-23T02:28:30;984.81;;;23.35;54.59
45071;BME280;30836;48.906;9.140;2023-05-23T02:29:31;984.79;;;23.37;54.60
45071;BME280;30836;48.906;9.140;2023-05-23T02:30:32;984.77;;;23.38;54.56
45071;BME280;30836;48.906;9.140;2023-05-23T02:31:33;984.77;;;23.34;54.81
45071;BME280;30836;48.906;9.140;2023-05-23T02:32:33;984.79;;;23.24;55.31
45071;BME280;30836;48.906;9.140;2023-05-23T02:33:34;984.79;;;23.16;55.28
45071;BME280;30836;48.906;9.140;2023-05-23T02:34:34;984.83;;;23.17;54.91
45071;BME280;30836;48.906;9.140;2023-05-23T02:35:34;984.83;;;23.16;55.34
45071;BME280;30836;48.906;9.140;2023-05-23T02:36:35;984.83;;;23.09;55.23
45071;BME280;30836;48.906;9.140;2023-05-23T02:37:35;984.85;;;23.09;55.27
45071;BME280;30836;48.906;9.140;2023-05-23T02:38:36;984.83;;;23.06;55.47
45071;BME280;30836;48.906;9.140;2023-05-23T02:39:36;984.87;;;23.03;55.47
45071;BME280;30836;48.906;9.140;2023-05-23T02:40:37;984.89;;;23.05;55.42
45071;BME280;30836;48.906;9.140;2023-05-23T02:41:37;984.91;;;23.09;55.25
45071;BME280;30836;48.906;9.140;2023-05-23T02:42:37;984.91;;;23.13;55.25
45071;BME280;30836;48.906;9.140;2023-05-23T02:43:38;984.91;;;23.15;55.21
45071;BME280;30836;48.906;9.140;2023-05-23T02:44:38;984.89;;;23.12;55.39
45071;BME280;30836;48.906;9.140;2023-05-23T02:45:39;984.91;;;23.03;55.82
45071;BME280;30836;48.906;9.140;2023-05-23T02:46:39;984.91;;;22.94;55.93
45071;BME280;30836;48.906;9.140;2023-05-23T02:47:39;984.93;;;22.88;55.96
45071;BME280;30836;48.906;9.140;2023-05-23T02:48:40;984.95;;;22.83;56.22
45071;BME280;30836;48.906;9.140;2023-05-23T02:49:40;984.95;;;22.79;56.03
45071;BME280;30836;48.906;9.140;2023-05-23T02:50:41;984.93;;;22.76;56.39
45071;BME280;30836;48.906;9.140;2023-05-23T02:51:41;984.97;;;22.74;56.13
45071;BME280;30836;48.906;9.140;2023-05-23T02:52:42;984.99;;;22.78;56.06
45071;BME280;30836;48.906;9.140;2023-05-23T02:53:42;984.99;;;22.81;55.79
45071;BME280;30836;48.906;9.140;2023-05-23T02:54:43;985.03;;;22.88;55.72
45071;BME280;30836;48.906;9.140;2023-05-23T02:55:43;984.97;;;22.91;55.88
45071;BME280;30836;48.906;9.140;2023-05-23T02:56:44;985.01;;;22.89;55.90
45071;BME280;30836;48.906;9.140;2023-05-23T02:57:45;984.99;;;22.93;55.53
45071;BME280;30836;48.906;9.140;2023-05-23T02:58:45;985.05;;;23.06;54.94
45071;BME280;30836;48.906;9.140;2023-05-23T02:59:45;985.01;;;23.23;54.48
45071;BME280;30836;48.906;9.140;2023-05-23T03:00:46;985.03;;;23.43;53.85
45071;BME280;30836;48.906;9.140;2023-05-23T03:01:46;985.01;;;23.64;53.44
45071;BME280;30836;48.906;9.140;2023-05-23T03:02:47;985.03;;;23.78;53.13
45071;BME280;30836;48.906;9.140;2023-05-23T03:03:47;985.05;;;23.84;53.20
45071;BME280;30836;48.906;9.140;2023-05-23T03:04:48;985.03;;;23.91;52.74
45071;BME280;30836;48.906;9.140;2023-05-23T03:05:48;985.07;;;23.99;52.67
45071;BME280;30836;48.906;9.140;2023-05-23T03:06:48;985.07;;;23.96;52.95
45071;BME280;30836;48.906;9.140;2023-05-23T03:07:49;985.05;;;23.96;52.58
45071;BME280;30836;48.906;9.140;2023-05-23T03:08:49;985.03;;;24.06;52.29
45071;BME280;30836;48.906;9.140;2023-05-23T03:09:50;985.03;;;24.16;52.15
45071;BME280;30836;48.906;9.140;2023-05-23T03:10:50;985.05;;;24.24;51.72
45071;BME280;30836;48.906;9.140;2023-05-23T03:11:51;985.07;;;24.33;51.73
45071;BME280;30836;48.906;9.140;2023-05-23T03:12:51;985.05;;;24.35;51.70
45071;BME280;30836;48.906;9.140;2023-05-23T03:13:52;985.05;;;24.35;51.62
45071;BME280;30836;48.906;9.140;2023-05-23T03:14:52;985.05;;;24.36;51.58
45071;BME280;30836;48.906;9.140;2023-05-23T03:15:53;985.09;;;24.35;51.81
45071;BME280;30836;48.906;9.140;2023-05-23T03:16:53;985.05;;;24.31;51.80
45071;BME280;30836;48.906;9.140;2023-05-23T03:17:53;985.09;;;24.33;51.56
45071;BME280;30836;48.906;9.140;2023-05-23T03:18:54;985.09;;;24.39;51.44
45071;BME280;30836;48.906;9.140;2023-05-23T03:19:54;985.09;;;24.42;51.39
45071;BME280;30836;48.906;9.140;2023-05-23T03:20:55;985.13;;;24.46;51.32
45071;BME280;30836;48.906;9.140;2023-05-23T03:21:55;985.13;;;24.51;51.17
45071;BME280;30836;48.906;9.140;2023-05-23T03:22:56;985.15;;;24.56;50.97
45071;BME280;30836;48.906;9.140;2023-05-23T03:23:56;985.17;;;24.59;50.96
45071;BME280;30836;48.906;9.140;2023-05-23T03:24:57;985.17;;;24.61;50.88
45071;BME280;30836;48.906;9.140;2023-05-23T03:25:57;985.13;;;24.65;50.78
45071;BME280;30836;48.906;9.140;2023-05-23T03:26:57;985.15;;;24.69;50.66
45071;BME280;30836;48.906;9.140;2023-05-23T03:27:58;985.17;;;24.71;50.63
45071;BME280;30836;48.906;9.140;2023-05-23T03:28:58;985.17;;;24.72;50.61
45071;BME280;30836;48.906;9.140;2023-05-23T03:29:59;985.17;;;24.73;50.58
45071;BME280;30836;48.906;9.140;2023-05-23T03:30:59;985.15;;;24.71;50.66
45071;BME280;30836;48.906;9.140;2023-05-23T03:32:00;985.17;;;24.67;50.62
45071;BME280;30836;48.906;9.140;2023-05-23T03:33:00;985.15;;;24.69;50.59
45071;BME280;30836;48.906;9.140;2023-05-23T03:34:01;985.17;;;24.71;50.52
45071;BME280;30836;48.906;9.140;2023-05-23T03:35:02;985.17;;;24.69;50.74
45071;BME280;30836;48.906;9.140;2023-05-23T03:36:02;985.17;;;24.56;51.29
45071;BME280;30836;48.906;9.140;2023-05-23T03:37:03;985.13;;;24.37;51.75
45071;BME280;30836;48.906;9.140;2023-05-23T03:38:03;985.15;;;24.23;51.88
45071;BME280;30836;48.906;9.140;2023-05-23T03:39:04;985.15;;;24.13;52.19
45071;BME280;30836;48.906;9.140;2023-05-23T03:40:05;985.15;;;24.02;52.30
45071;BME280;30836;48.906;9.140;2023-05-23T03:41:06;985.15;;;23.94;52.44
45071;BME280;30836;48.906;9.140;2023-05-23T03:42:06;985.13;;;23.85;52.85
45071;BME280;30836;48.906;9.140;2023-05-23T03:43:07;985.15;;;23.72;53.05
45071;BME280;30836;48.906;9.140;2023-05-23T03:44:07;985.13;;;23.62;53.38
45071;BME280;30836;48.906;9.140;2023-05-23T03:45:08;985.13;;;23.54;53.32
45071;BME280;30836;48.906;9.140;2023-05-23T03:46:08;985.15;;;23.52;53.46
45071;BME280;30836;48.906;9.140;2023-05-23T03:47:09;985.17;;;23.51;53.38
45071;BME280;30836;48.906;9.140;2023-05-23T03:48:09;985.15;;;23.52;53.35
45071;BME280;30836;48.906;9.140;2023-05-23T03:49:10;985.17;;;23.51;53.41
45071;BME280;30836;48.906;9.140;2023-05-23T03:50:10;985.21;;;23.49;53.40
45071;BME280;30836;48.906;9.140;2023-05-23T03:51:11;985.21;;;23.43;53.85
45071;BME280;30836;48.906;9.140;2023-05-23T03:52:11;985.21;;;23.34;53.89
45071;BME280;30836;48.906;9.140;2023-05-23T03:53:11;985.25;;;23.33;53.74
45071;BME280;30836;48.906;9.140;2023-05-23T03:54:12;985.23;;;23.30;54.03
45071;BME280;30836;48.906;9.140;2023-05-23T03:55:12;985.21;;;23.22;54.28
45071;BME280;30836;48.906;9.140;2023-05-23T03:56:13;985.25;;;23.17;54.20
45071;BME280;30836;48.906;9.140;2023-05-23T03:57:13;985.21;;;23.13;54.51
45071;BME280;30836;48.906;9.140;2023-05-23T03:57:23;985.21;;;23.00;54.57
45071;BME280;30836;48.906;9.140;2023-05-23T03:58:24;985.23;;;22.99;54.73
45071;BME280;30836;48.906;9.140;2023-05-23T03:59:24;985.23;;;23.00;54.55
45071;BME280;30836;48.906;9.140;2023-05-23T04:00:25;985.25;;;23.03;54.58
45071;BME280;30836;48.906;9.140;2023-05-23T04:01:25;985.25;;;23.07;54.23
45071;BME280;30836;48.906;9.140;2023-05-23T04:02:26;985.25;;;23.12;54.26
45071;BME280;30836;48.906;9.140;2023-05-23T04:03:26;985.27;;;23.11;54.37
45071;BME280;30836;48.906;9.140;2023-05-23T04:04:27;985.29;;;23.07;54.44
45071;BME280;30836;48.906;9.140;2023-05-23T04:05:28;985.29;;;23.10;54.33
45071;BME280;30836;48.906;9.140;2023-05-23T04:06:29;985.27;;;23.13;54.24
45071;BME280;30836;48.906;9.140;2023-05-23T04:07:29;985.31;;;23.11;54.49
45071;BME280;30836;48.906;9.140;2023-05-23T04:08:30;985.29;;;23.09;54.51
45071;BME280;30836;48.906;9.140;2023-05-23T04:09:30;985.29;;;23.11;54.25
45071;BME280;30836;48.906;9.140;2023-05-23T04:10:30;985.29;;;23.16;54.16
45071;BME280;30836;48.906;9.140;2023-05-23T04:11:31;985.29;;;23.20;54.05
45071;BME280;30836;48.906;9.140;2023-05-23T04:12:31;985.29;;;23.26;53.90
45071;BME280;30836;48.906;9.140;2023-05-23T04:13:32;985.29;;;23.33;53.71
45071;BME280;30836;48.906;9.140;2023-05-23T04:14:32;985.31;;;23.38;53.62
45071;BME280;30836;48.906;9.140;2023-05-23T04:15:33;985.31;;;23.42;53.37
45071;BME280;30836;48.906;9.140;2023-05-23T04:16:33;985.32;;;23.43;53.57
45071;BME280;30836;48.906;9.140;2023-05-23T04:17:34;985.32;;;23.43;53.43
45071;BME280;30836;48.906;9.140;2023-05-23T04:18:35;985.34;;;23.45;53.38
45071;BME280;30836;48.906;9.140;2023-05-23T04:19:35;985.38;;;23.47;53.28
45071;BME280;30836;48.906;9.140;2023-05-23T04:20:36;985.38;;;23.50;53.19
45071;BME280;30836;48.906;9.140;2023-05-23T04:21:36;985.38;;;23.53;53.26
45071;BME280;30836;48.906;9.140;2023-05-23T04:22:36;985.40;;;23.52;53.27
45071;BME280;30836;48.906;9.140;2023-05-23T04:23:37;985.38;;;23.49;53.32
45071;BME280;30836;48.906;9.140;2023-05-23T04:24:37;985.38;;;23.46;53.39
45071;BME280;30836;48.906;9.140;2023-05-23T04:25:38;985.36;;;23.42;53.39
45071;BME280;30836;48.906;9.140;2023-05-23T04:26:38;985.38;;;23.40;53.56
45071;BME280;30836;48.906;9.140;2023-05-23T04:27:39;985.36;;;23.39;53.43
45071;BME280;30836;48.906;9.140;2023-05-23T04:28:39;985.36;;;23.40;53.54
45071;BME280;30836;48.906;9.140;2023-05-23T04:29:40;985.34;;;23.42;53.36
45071;BME280;30836;48.906;9.140;2023-05-23T04:30:40;985.36;;;23.47;53.23
45071;BME280;30836;48.906;9.140;2023-05-23T04:31:40;985.34;;;23.52;53.10
45071;BME280;30836;48.906;9.140;2023-05-23T04:32:41;985.36;;;23.57;53.08
45071;BME280;30836;48.906;9.140;2023-05-23T04:33:42;985.36;;;23.63;52.87
45071;BME280;30836;48.906;9.140;2023-05-23T04:34:42;985.36;;;23.69;52.68
45071;BME280;30836;48.906;9.140;2023-05-23T04:35:43;985.36;;;23.76;52.47
45071;BME280;30836;48.906;9.140;2023-05-23T04:36:43;985.38;;;23.82;52.35
45071;BME280;30836;48.906;9.140;2023-05-23T04:37:43;985.38;;;23.87;52.23
45071;BME280;30836;48.906;9.140;2023-05-23T04:38:44;985.40;;;23.89;52.21
45071;BME280;30836;48.906;9.140;2023-05-23T04:39:44;985.40;;;23.91;52.13
45071;BME280;30836;48.906;9.140;2023-05-23T04:40:45;985.40;;;23.93;52.06
45071;BME280;30836;48.906;9.140;2023-05-23T04:41:45;985.42;;;23.94;52.05
45071;BME280;30836;48.906;9.140;2023-05-23T04:42:46;985.42;;;23.93;52.09
45071;BME280;30836;48.906;9.140;2023-05-23T04:43:46;985.40;;;23.91;52.26
45071;BME280;30836;48.906;9.140;2023-05-23T04:44:46;985.42;;;23.88;52.12
45071;BME280;30836;48.906;9.140;2023-05-23T04:45:47;985.46;;;23.87;52.24
45071;BME280;30836;48.906;9.140;2023-05-23T04:45:57;985.46;;;23.83;52.12
45071;BME280;30836;48.906;9.140;2023-05-23T04:46:57;985.48;;;23.87;52.06
45071;BME280;30836;48.906;9.140;2023-05-23T04:47:58;985.48;;;23.92;52.00
45071;BME280;30836;48.906;9.140;2023-05-23T04:48:58;985.50;;;23.96;51.92
45071;BME280;30836;48.906;9.140;2023-05-23T04:49:59;985.52;;;23.99;52.01
45071;BME280;30836;48.906;9.140;2023-05-23T04:51:00;985.50;;;24.01;51.92
45071;BME280;30836;48.906;9.140;2023-05-23T04:52:00;985.52;;;24.02;51.95
45071;BME280;30836;48.906;9.140;2023-05-23T04:53:01;985.54;;;24.01;51.97
45071;BME280;30836;48.906;9.140;2023-05-23T04:54:01;985.52;;;24.01;51.97
45071;BME280;30836;48.906;9.140;2023-05-23T04:55:02;985.56;;;24.03;51.89
45071;BME280;30836;48.906;9.140;2023-05-23T04:56:02;985.54;;;24.03;51.87
45071;BME280;30836;48.906;9.140;2023-05-23T04:57:02;985.56;;;24.01;51.97
45071;BME280;30836;48.906;9.140;2023-05-23T04:58:03;985.58;;;24.01;51.97
45071;BME280;30836;48.906;9.140;2023-05-23T04:59:03;985.58;;;24.02;51.97
45071;BME280;30836;48.906;9.140;2023-05-23T05:00:04;985.60;;;23.99;52.23
45071;BME280;30836;48.906;9.140;2023-05-23T05:01:06;985.62;;;23.92;52.35
45071;BME280;30836;48.906;9.140;2023-05-23T05:02:06;985.62;;;23.89;52.38
45071;BME280;30836;48.906;9.140;2023-05-23T05:03:07;985.64;;;23.87;52.34
45071;BME280;30836;48.906;9.140;2023-05-23T05:04:07;985.68;;;23.84;52.56
45071;BME280;30836;48.906;9.140;2023-05-23T05:05:08;985.66;;;23.75;52.90
45071;BME280;30836;48.906;9.140;2023-05-23T05:06:09;985.64;;;23.69;52.94
45071;BME280;30836;48.906;9.140;2023-05-23T05:07:09;985.62;;;23.69;52.80
45071;BME280;30836;48.906;9.140;2023-05-23T05:08:10;985.64;;;23.70;52.86
45071;BME280;30836;48.906;9.140;2023-05-23T05:09:10;985.62;;;23.65;53.06
45071;BME280;30836;48.906;9.140;2023-05-23T05:10:11;985.62;;;23.59;53.08
45071;BME280;30836;48.906;9.140;2023-05-23T05:11:11;985.60;;;23.59;52.96
45071;BME280;30836;48.906;9.140;2023-05-23T05:12:12;985.66;;;23.62;52.94
45071;BME280;30836;48.906;9.140;2023-05-23T05:13:12;985.64;;;23.61;52.83
45071;BME280;30836;48.906;9.140;2023-05-23T05:14:12;985.68;;;23.57;53.17
45071;BME280;30836;48.906;9.140;2023-05-23T05:15:13;985.66;;;23.56;53.16
45071;BME280;30836;48.906;9.140;2023-05-23T05:16:15;985.70;;;23.59;52.91
45071;BME280;30836;48.906;9.140;2023-05-23T05:17:15;985.68;;;23.63;52.87
45071;BME280;30836;48.906;9.140;2023-05-23T05:18:15;985.72;;;23.64;52.95
45071;BME280;30836;48.906;9.140;2023-05-23T05:19:16;985.72;;;23.64;52.86
45071;BME280;30836;48.906;9.140;2023-05-23T05:20:16;985.70;;;23.66;52.87
45071;BME280;30836;48.906;9.140;2023-05-23T05:21:17;985.70;;;23.67;52.71
45071;BME280;30836;48.906;9.140;2023-05-23T05:22:17;985.68;;;23.68;52.83
45071;BME280;30836;48.906;9.140;2023-05-23T05:23:17;985.70;;;23.65;52.82
45071;BME280;30836;48.906;9.140;2023-05-23T05:24:18;985.70;;;23.60;53.19
45071;BME280;30836;48.906;9.140;2023-05-23T05:25:18;985.70;;;23.54;53.16
45071;BME280;30836;48.906;9.140;2023-05-23T05:26:19;985.72;;;23.51;53.24
45071;BME280;30836;48.906;9.140;2023-05-23T05:27:19;985.72;;;23.49;53.24
45071;BME280;30836;48.906;9.140;2023-05-23T05:28:20;985.72;;;23.50;53.23
45071;BME280;30836;48.906;9.140;2023-05-23T05:29:21;985.72;;;23.50;53.29
45071;BME280;30836;48.906;9.140;2023-05-23T05:30:21;985.74;;;23.50;53.24
45071;BME280;30836;48.906;9.140;2023-05-23T05:31:21;985.76;;;23.53;53.11
45071;BME280;30836;48.906;9.140;2023-05-23T05:32:22;985.74;;;23.56;53.09
45071;BME280;30836;48.906;9.140;2023-05-23T05:33:22;985.76;;;23.57;53.21
45071;BME280;30836;48.906;9.140;2023-05-23T05:34:23;985.78;;;23.53;53.33
45071;BME280;30836;48.906;9.140;2023-05-23T05:35:23;985.78;;;23.50;53.18
45071;BME280;30836;48.906;9.140;2023-05-23T05:36:24;985.74;;;23.50;53.22